createdAt,value
2019-02-08T00:00:04.184Z,18.50
2019-02-08T00:01:04.217Z,18.00
2019-02-08T00:02:04.259Z,17.60
2019-02-08T00:03:04.292Z,17.90
2019-02-08T00:04:04.326Z,18.00
2019-02-08T00:05:04.366Z,18.00
2019-02-08T00:06:04.400Z,18.30
2019-02-08T00:07:04.439Z,16.60
2019-02-08T00:08:04.477Z,17.50
2019-02-08T00:09:04.513Z,17.30
2019-02-08T00:10:04.549Z,17.30
2019-02-08T00:11:04.586Z,18.00
2019-02-08T00:12:04.621Z,17.30
2019-02-08T00:13:04.658Z,17.70
2019-02-08T00:14:04.694Z,16.70
2019-02-08T00:15:04.732Z,18.50
2019-02-08T00:16:04.771Z,17.60
2019-02-08T00:17:04.825Z,18.10
2019-02-08T00:18:04.843Z,16.70
2019-02-08T00:19:04.888Z,17.30
2019-02-08T00:20:04.935Z,17.30
2019-02-08T00:21:04.955Z,16.90
2019-02-08T00:22:04.995Z,16.80
2019-02-08T00:23:05.036Z,17.10
2019-02-08T00:24:05.065Z,17.30
2019-02-08T00:25:05.108Z,15.70
2019-02-08T00:26:05.157Z,16.10
2019-02-08T00:27:05.197Z,15.80
2019-02-08T00:28:05.213Z,15.70
2019-02-08T00:29:05.262Z,15.60
2019-02-08T00:30:05.339Z,15.30
2019-02-08T00:31:05.340Z,15.30
2019-02-08T00:32:05.362Z,15.20
2019-02-08T00:33:05.399Z,17.10
2019-02-08T00:34:05.435Z,17.90
2019-02-08T00:35:05.474Z,17.80
2019-02-08T00:36:05.512Z,16.60
2019-02-08T00:37:05.548Z,17.70
2019-02-08T00:38:05.586Z,17.50
2019-02-08T00:39:05.625Z,15.50
2019-02-08T00:40:05.660Z,15.40
2019-02-08T00:41:05.696Z,15.90
2019-02-08T00:42:05.733Z,13.90
2019-02-08T00:43:05.779Z,15.30
2019-02-08T00:44:05.806Z,15.10
2019-02-08T00:45:05.843Z,14.80
2019-02-08T00:46:05.879Z,14.30
2019-02-08T00:47:05.928Z,13.80
2019-02-08T00:48:05.954Z,14.20
2019-02-08T00:49:05.991Z,13.40
2019-02-08T00:50:06.032Z,13.70
2019-02-08T00:51:06.076Z,13.60
2019-02-08T00:52:06.102Z,13.80
2019-02-08T00:53:06.139Z,12.60
2019-02-08T00:54:06.176Z,13.50
2019-02-08T00:55:06.214Z,13.10
2019-02-08T00:56:06.250Z,13.20
2019-02-08T00:57:06.288Z,13.50
2019-02-08T00:58:06.336Z,13.80
2019-02-08T00:59:06.362Z,13.60
2019-02-08T01:00:06.400Z,22.90
2019-02-08T01:01:06.497Z,15.00
2019-02-08T01:02:06.475Z,14.60
2019-02-08T01:03:06.513Z,13.40
2019-02-08T01:04:06.549Z,14.10
2019-02-08T01:05:06.585Z,15.30
2019-02-08T01:06:06.628Z,16.40
2019-02-08T01:07:06.661Z,15.40
2019-02-08T01:08:06.696Z,15.30
2019-02-08T01:09:06.735Z,14.30
2019-02-08T01:10:06.772Z,14.40
2019-02-08T01:11:06.808Z,16.30
2019-02-08T01:12:06.853Z,14.80
2019-02-08T01:13:06.883Z,14.10
2019-02-08T01:14:06.921Z,13.80
2019-02-08T01:15:06.965Z,14.50
2019-02-08T01:16:07.007Z,14.40
2019-02-08T01:17:07.032Z,13.20
2019-02-08T01:18:07.071Z,13.70
2019-02-08T01:19:07.107Z,13.00
2019-02-08T01:20:07.142Z,13.10
2019-02-08T01:21:07.180Z,13.60
2019-02-08T01:22:07.232Z,13.40
2019-02-08T01:23:07.256Z,13.60
2019-02-08T01:24:07.290Z,12.50
2019-02-08T01:25:07.329Z,13.50
2019-02-08T01:26:07.364Z,12.60
2019-02-08T01:27:07.402Z,11.70
2019-02-08T01:28:07.439Z,12.00
2019-02-08T01:29:07.475Z,11.00
2019-02-08T01:30:07.524Z,11.00
2019-02-08T01:31:07.551Z,11.40
2019-02-08T01:32:07.596Z,10.60
2019-02-08T01:33:07.626Z,11.20
2019-02-08T01:34:07.662Z,10.20
2019-02-08T01:35:07.700Z,10.20
2019-02-08T01:36:07.736Z,11.30
2019-02-08T01:37:07.772Z,10.90
2019-02-08T01:38:07.810Z,10.20
2019-02-08T01:39:07.848Z,10.80
2019-02-08T01:40:07.905Z,10.10
2019-02-08T01:41:07.924Z,10.60
2019-02-08T01:42:07.968Z,9.90
2019-02-08T01:43:07.997Z,9.80
2019-02-08T01:44:08.036Z,10.10
2019-02-08T01:45:08.068Z,10.10
2019-02-08T01:46:08.106Z,10.20
2019-02-08T01:47:08.145Z,10.10
2019-02-08T01:48:08.180Z,10.10
2019-02-08T01:49:08.217Z,9.60
2019-02-08T01:50:08.254Z,9.60
2019-02-08T01:51:08.589Z,9.80
2019-02-08T01:52:08.329Z,9.50
2019-02-08T01:53:08.366Z,9.70
2019-02-08T01:54:08.419Z,9.60
2019-02-08T01:55:08.443Z,9.40
2019-02-08T01:56:08.477Z,9.50
2019-02-08T01:57:08.515Z,9.60
2019-02-08T01:58:08.565Z,9.50
2019-02-08T01:59:08.590Z,9.10
2019-02-08T02:00:10.049Z,9.20
2019-02-08T02:01:08.664Z,9.20
2019-02-08T02:02:08.701Z,9.90
2019-02-08T02:03:08.747Z,9.20
2019-02-08T02:04:08.776Z,9.20
2019-02-08T02:05:08.812Z,9.20
2019-02-08T02:06:08.849Z,8.80
2019-02-08T02:07:08.886Z,9.60
2019-02-08T02:08:08.925Z,8.70
2019-02-08T02:09:08.977Z,9.00
2019-02-08T02:10:09.000Z,8.70
2019-02-08T02:11:09.036Z,8.90
2019-02-08T02:12:09.072Z,9.10
2019-02-08T02:13:09.117Z,8.70
2019-02-08T02:14:09.149Z,8.10
2019-02-08T02:15:09.186Z,8.20
2019-02-08T02:16:09.223Z,8.60
2019-02-08T02:17:09.269Z,8.30
2019-02-08T02:18:09.296Z,9.00
2019-02-08T02:19:09.334Z,9.30
2019-02-08T02:20:09.387Z,9.90
2019-02-08T02:21:09.410Z,9.50
2019-02-08T02:22:09.447Z,8.20
2019-02-08T02:23:09.485Z,8.10
2019-02-08T02:24:09.528Z,7.80
2019-02-08T02:25:09.557Z,7.70
2019-02-08T02:26:09.595Z,7.60
2019-02-08T02:27:09.635Z,7.60
2019-02-08T02:28:09.677Z,7.60
2019-02-08T02:29:09.708Z,7.50
2019-02-08T02:30:09.754Z,7.40
2019-02-08T02:31:09.784Z,7.50
2019-02-08T02:32:09.826Z,7.70
2019-02-08T02:33:10.016Z,7.60
2019-02-08T02:34:09.895Z,7.70
2019-02-08T02:35:09.933Z,7.70
2019-02-08T02:36:09.970Z,7.30
2019-02-08T02:37:10.016Z,7.80
2019-02-08T02:38:10.047Z,7.60
2019-02-08T02:39:10.084Z,7.50
2019-02-08T02:40:10.121Z,7.90
2019-02-08T02:41:10.160Z,7.60
2019-02-08T02:42:10.195Z,7.80
2019-02-08T02:43:10.231Z,8.10
2019-02-08T02:44:10.268Z,7.70
2019-02-08T02:45:10.307Z,8.40
2019-02-08T02:46:10.343Z,7.80
2019-02-08T02:47:10.393Z,7.60
2019-02-08T02:48:10.424Z,8.10
2019-02-08T02:49:10.456Z,7.90
2019-02-08T02:50:10.592Z,8.10
2019-02-08T02:51:10.535Z,8.40
2019-02-08T02:52:10.575Z,7.90
2019-02-08T02:53:10.604Z,8.30
2019-02-08T02:54:10.642Z,7.80
2019-02-08T02:55:10.679Z,7.70
2019-02-08T02:56:10.714Z,8.00
2019-02-08T02:57:10.807Z,8.10
2019-02-08T02:58:10.792Z,8.30
2019-02-08T02:59:10.828Z,8.20
2019-02-08T03:00:10.864Z,8.40
2019-02-08T03:01:10.902Z,7.80
2019-02-08T03:02:10.942Z,8.20
2019-02-08T03:03:10.980Z,8.00
2019-02-08T03:04:11.016Z,8.30
2019-02-08T03:05:11.054Z,8.00
2019-02-08T03:06:11.089Z,8.50
2019-02-08T03:07:11.129Z,8.60
2019-02-08T03:08:11.164Z,8.50
2019-02-08T03:09:11.211Z,8.50
2019-02-08T03:10:11.241Z,8.40
2019-02-08T03:11:11.277Z,8.70
2019-02-08T03:12:11.313Z,8.80
2019-02-08T03:13:11.352Z,8.60
2019-02-08T03:14:11.387Z,8.00
2019-02-08T03:15:11.428Z,8.90
2019-02-08T03:16:11.463Z,8.10
2019-02-08T03:17:11.502Z,9.00
2019-02-08T03:18:11.540Z,8.20
2019-02-08T03:19:11.577Z,8.20
2019-02-08T03:20:11.613Z,7.90
2019-02-08T03:21:11.651Z,8.60
2019-02-08T03:22:11.688Z,8.60
2019-02-08T03:23:11.735Z,8.30
2019-02-08T03:24:13.077Z,9.00
2019-02-08T03:25:11.799Z,8.60
2019-02-08T03:26:11.886Z,9.00
2019-02-08T03:27:11.874Z,8.50
2019-02-08T03:28:11.909Z,8.80
2019-02-08T03:29:11.948Z,8.30
2019-02-08T03:30:11.985Z,8.60
2019-02-08T03:31:12.026Z,8.80
2019-02-08T03:32:12.061Z,8.90
2019-02-08T03:33:12.174Z,8.80
2019-02-08T03:34:12.140Z,8.20
2019-02-08T03:35:12.179Z,8.90
2019-02-08T03:36:12.210Z,8.80
2019-02-08T03:37:12.253Z,9.00
2019-02-08T03:38:12.282Z,9.00
2019-02-08T03:39:12.323Z,9.00
2019-02-08T03:40:12.358Z,9.00
2019-02-08T03:41:12.400Z,8.70
2019-02-08T03:42:12.433Z,9.20
2019-02-08T03:43:12.488Z,9.60
2019-02-08T03:44:12.505Z,9.60
2019-02-08T03:45:12.545Z,10.90
2019-02-08T03:46:12.580Z,10.10
2019-02-08T03:47:12.618Z,11.90
2019-02-08T03:48:12.664Z,11.80
2019-02-08T03:49:12.693Z,12.10
2019-02-08T03:50:12.731Z,12.60
2019-02-08T03:51:12.769Z,13.20
2019-02-08T03:52:12.806Z,13.50
2019-02-08T03:53:12.843Z,14.10
2019-02-08T03:54:20.690Z,14.90
2019-02-08T03:55:12.917Z,14.40
2019-02-08T03:56:12.953Z,14.00
2019-02-08T03:57:12.989Z,14.40
2019-02-08T03:58:13.025Z,13.30
2019-02-08T03:59:13.064Z,13.40
2019-02-08T04:00:13.098Z,12.60
2019-02-08T04:01:13.136Z,12.50
2019-02-08T04:02:13.175Z,11.70
2019-02-08T04:03:13.210Z,11.20
2019-02-08T04:04:13.247Z,10.80
2019-02-08T04:05:13.297Z,10.30
2019-02-08T04:06:13.323Z,10.90
2019-02-08T04:07:13.359Z,10.20
2019-02-08T04:08:13.401Z,9.20
2019-02-08T04:09:13.432Z,9.40
2019-02-08T04:10:13.471Z,8.90
2019-02-08T04:11:13.507Z,8.40
2019-02-08T04:12:13.546Z,8.40
2019-02-08T04:13:13.585Z,8.50
2019-02-08T04:14:13.618Z,7.90
2019-02-08T04:15:13.656Z,7.10
2019-02-08T04:16:13.697Z,7.60
2019-02-08T04:17:13.736Z,7.00
2019-02-08T04:18:13.766Z,7.50
2019-02-08T04:19:13.801Z,6.70
2019-02-08T04:20:13.843Z,6.90
2019-02-08T04:21:13.875Z,7.10
2019-02-08T04:22:13.914Z,6.60
2019-02-08T04:23:14.100Z,6.70
2019-02-08T04:24:13.985Z,6.70
2019-02-08T04:25:14.025Z,6.80
2019-02-08T04:26:14.061Z,6.00
2019-02-08T04:27:14.096Z,6.00
2019-02-08T04:28:14.135Z,6.30
2019-02-08T04:29:14.177Z,6.50
2019-02-08T04:30:14.207Z,6.10
2019-02-08T04:31:14.249Z,6.80
2019-02-08T04:32:14.281Z,6.10
2019-02-08T04:33:14.320Z,6.10
2019-02-08T04:34:14.366Z,6.20
2019-02-08T04:35:14.395Z,6.40
2019-02-08T04:36:14.430Z,6.40
2019-02-08T04:37:14.468Z,6.60
2019-02-08T04:38:14.505Z,6.80
2019-02-08T04:39:14.541Z,6.20
2019-02-08T04:40:14.578Z,6.70
2019-02-08T04:41:14.617Z,6.80
2019-02-08T04:42:14.654Z,6.40
2019-02-08T04:43:14.693Z,6.80
2019-02-08T04:44:14.727Z,6.70
2019-02-08T04:45:14.764Z,7.20
2019-02-08T04:46:14.862Z,7.40
2019-02-08T04:47:14.848Z,6.90
2019-02-08T04:48:14.883Z,7.50
2019-02-08T04:49:15.064Z,7.80
2019-02-08T04:50:14.951Z,8.10
2019-02-08T04:51:15.000Z,7.70
2019-02-08T04:52:15.041Z,8.30
2019-02-08T04:53:15.080Z,7.70
2019-02-08T04:54:15.099Z,7.70
2019-02-08T04:55:15.141Z,8.20
2019-02-08T04:56:15.175Z,8.20
2019-02-08T04:57:15.213Z,8.60
2019-02-08T04:58:15.251Z,8.20
2019-02-08T04:59:15.286Z,8.60
2019-02-08T05:00:15.321Z,8.50
2019-02-08T05:01:15.361Z,8.30
2019-02-08T05:02:15.397Z,8.20
2019-02-08T05:03:15.441Z,9.10
2019-02-08T05:04:15.473Z,8.90
2019-02-08T05:05:15.513Z,8.00
2019-02-08T05:06:15.543Z,8.20
2019-02-08T05:07:15.581Z,8.30
2019-02-08T05:08:15.618Z,8.40
2019-02-08T05:09:15.655Z,9.10
2019-02-08T05:10:15.694Z,8.80
2019-02-08T05:11:15.731Z,8.80
2019-02-08T05:12:15.767Z,8.40
2019-02-08T05:13:15.803Z,8.80
2019-02-08T05:14:15.840Z,9.40
2019-02-08T05:15:15.878Z,8.50
2019-02-08T05:16:15.913Z,8.60
2019-02-08T05:17:15.952Z,8.70
2019-02-08T05:18:15.990Z,8.90
2019-02-08T05:19:16.027Z,8.60
2019-02-08T05:20:16.069Z,9.10
2019-02-08T05:21:16.100Z,9.30
2019-02-08T05:22:16.140Z,8.90
2019-02-08T05:23:16.177Z,9.40
2019-02-08T05:24:16.219Z,9.00
2019-02-08T05:25:16.285Z,9.20
2019-02-08T05:26:16.285Z,9.10
2019-02-08T05:27:16.327Z,9.10
2019-02-08T05:28:16.364Z,9.20
2019-02-08T05:29:16.400Z,9.60
2019-02-08T05:30:16.438Z,9.00
2019-02-08T05:31:16.473Z,9.20
2019-02-08T05:32:16.509Z,9.70
2019-02-08T05:33:16.549Z,8.80
2019-02-08T05:34:16.584Z,9.00
2019-02-08T05:35:16.629Z,9.00
2019-02-08T05:36:16.660Z,9.10
2019-02-08T05:37:16.695Z,9.20
2019-02-08T05:38:16.731Z,8.60
2019-02-08T05:39:16.774Z,8.50
2019-02-08T05:40:16.807Z,9.00
2019-02-08T05:41:16.843Z,8.90
2019-02-08T05:42:16.881Z,9.00
2019-02-08T05:43:16.919Z,9.20
2019-02-08T05:44:16.967Z,8.80
2019-02-08T05:45:16.992Z,9.00
2019-02-08T05:46:17.088Z,8.90
2019-02-08T05:47:17.069Z,8.30
2019-02-08T05:48:17.102Z,8.50
2019-02-08T05:49:17.144Z,8.20
2019-02-08T05:50:17.178Z,8.80
2019-02-08T05:51:17.217Z,8.80
2019-02-08T05:52:17.254Z,8.10
2019-02-08T05:53:17.293Z,8.10
2019-02-08T05:54:17.327Z,8.60
2019-02-08T05:55:17.364Z,8.60
2019-02-08T05:56:17.401Z,8.40
2019-02-08T05:57:17.437Z,8.30
2019-02-08T05:58:17.475Z,8.00
2019-02-08T05:59:17.511Z,8.10
2019-02-08T06:00:17.561Z,8.20
2019-02-08T06:01:17.589Z,8.80
2019-02-08T06:02:17.643Z,8.00
2019-02-08T06:03:17.662Z,8.50
2019-02-08T06:04:17.703Z,8.20
2019-02-08T06:05:17.738Z,8.50
2019-02-08T06:06:17.775Z,7.90
2019-02-08T06:07:17.816Z,8.00
2019-02-08T06:08:17.880Z,8.50
2019-02-08T06:09:17.885Z,8.00
2019-02-08T06:10:17.921Z,8.60
2019-02-08T06:11:17.958Z,8.80
2019-02-08T06:12:18.003Z,8.40
2019-02-08T06:13:18.033Z,8.60
2019-02-08T06:14:18.073Z,8.40
2019-02-08T06:15:18.109Z,8.20
2019-02-08T06:16:18.146Z,8.40
2019-02-08T06:17:18.184Z,8.50
2019-02-08T06:18:18.220Z,7.60
2019-02-08T06:19:18.256Z,8.20
2019-02-08T06:20:18.293Z,8.10
2019-02-08T06:21:18.331Z,8.30
2019-02-08T06:22:18.373Z,8.00
2019-02-08T06:23:18.414Z,7.20
2019-02-08T06:24:18.447Z,7.70
2019-02-08T06:25:18.484Z,7.80
2019-02-08T06:26:18.518Z,7.60
2019-02-08T06:27:18.559Z,7.40
2019-02-08T06:28:18.590Z,7.40
2019-02-08T06:29:18.636Z,7.70
2019-02-08T06:30:18.668Z,7.70
2019-02-08T06:31:18.704Z,7.50
2019-02-08T06:32:18.738Z,8.20
2019-02-08T06:33:18.791Z,7.50
2019-02-08T06:34:18.817Z,7.60
2019-02-08T06:35:18.854Z,7.80
2019-02-08T06:36:18.890Z,7.70
2019-02-08T06:37:18.927Z,7.50
2019-02-08T06:38:18.966Z,7.30
2019-02-08T06:39:19.009Z,6.90
2019-02-08T06:40:19.050Z,7.10
2019-02-08T06:41:19.075Z,7.60
2019-02-08T06:42:19.121Z,7.10
2019-02-08T06:43:19.152Z,7.00
2019-02-08T06:44:19.187Z,6.70
2019-02-08T06:45:19.226Z,7.50
2019-02-08T06:46:19.263Z,6.90
2019-02-08T06:47:19.310Z,7.00
2019-02-08T06:48:19.339Z,6.90
2019-02-08T06:49:19.375Z,7.30
2019-02-08T06:50:19.417Z,7.00
2019-02-08T06:51:19.450Z,6.40
2019-02-08T06:52:19.486Z,7.70
2019-02-08T06:53:19.523Z,6.70
2019-02-08T06:54:19.564Z,6.90
2019-02-08T06:55:19.599Z,7.10
2019-02-08T06:56:19.643Z,7.30
2019-02-08T06:57:19.675Z,6.80
2019-02-08T06:58:19.712Z,6.60
2019-02-08T06:59:19.750Z,7.10
2019-02-08T07:00:19.784Z,7.00
2019-02-08T07:01:19.824Z,7.40
2019-02-08T07:02:19.861Z,6.60
2019-02-08T07:03:19.900Z,6.90
2019-02-08T07:04:21.459Z,7.50
2019-02-08T07:05:19.979Z,8.00
2019-02-08T07:06:20.013Z,7.30
2019-02-08T07:07:20.051Z,6.90
2019-02-08T07:08:20.086Z,7.50
2019-02-08T07:09:20.125Z,7.20
2019-02-08T07:10:20.162Z,7.30
2019-02-08T07:11:20.198Z,7.30
2019-02-08T07:12:20.237Z,6.90
2019-02-08T07:13:20.272Z,7.60
2019-02-08T07:14:20.323Z,7.60
2019-02-08T07:15:20.348Z,7.50
2019-02-08T07:16:20.386Z,7.90
2019-02-08T07:17:20.422Z,7.30
2019-02-08T07:18:20.465Z,7.00
2019-02-08T07:19:20.498Z,7.40
2019-02-08T07:20:20.535Z,7.30
2019-02-08T07:21:20.571Z,7.40
2019-02-08T07:22:20.611Z,7.40
2019-02-08T07:23:20.647Z,7.60
2019-02-08T07:24:20.684Z,7.10
2019-02-08T07:25:20.723Z,7.80
2019-02-08T07:26:20.760Z,8.10
2019-02-08T07:27:20.805Z,8.10
2019-02-08T07:28:20.839Z,8.10
2019-02-08T07:29:20.872Z,7.50
2019-02-08T07:30:20.917Z,8.30
2019-02-08T07:31:20.958Z,7.90
2019-02-08T07:32:20.987Z,7.90
2019-02-08T07:33:21.023Z,8.50
2019-02-08T07:34:21.064Z,7.90
2019-02-08T07:35:21.105Z,8.90
2019-02-08T07:36:21.138Z,8.20
2019-02-08T07:37:21.181Z,8.20
2019-02-08T07:38:21.215Z,8.50
2019-02-08T07:39:21.249Z,8.40
2019-02-08T07:40:21.301Z,9.10
2019-02-08T07:41:21.325Z,8.60
2019-02-08T07:42:21.365Z,8.80
2019-02-08T07:43:21.401Z,8.60
2019-02-08T07:44:21.436Z,8.60
2019-02-08T07:45:21.473Z,8.80
2019-02-08T07:46:21.512Z,8.50
2019-02-08T07:47:21.602Z,8.80
2019-02-08T07:48:21.586Z,8.60
2019-02-08T07:49:21.625Z,8.60
2019-02-08T07:50:21.663Z,8.50
2019-02-08T07:51:21.713Z,8.80
2019-02-08T07:52:21.736Z,8.50
2019-02-08T07:53:21.775Z,8.80
2019-02-08T07:54:21.813Z,8.90
2019-02-08T07:55:26.201Z,8.90
2019-02-08T07:57:21.926Z,8.20
2019-02-08T07:58:21.964Z,8.80
2019-02-08T07:59:22.004Z,8.00
2019-02-08T08:00:22.040Z,8.00
2019-02-08T08:01:22.088Z,8.70
2019-02-08T08:02:22.115Z,8.40
2019-02-08T08:03:22.160Z,8.20
2019-02-08T08:04:22.197Z,8.60
2019-02-08T08:05:22.229Z,9.10
2019-02-08T08:06:22.267Z,8.10
2019-02-08T08:07:22.306Z,8.80
2019-02-08T08:08:22.341Z,8.60
2019-02-08T08:09:22.379Z,8.70
2019-02-08T08:10:22.419Z,8.80
2019-02-08T08:11:22.457Z,8.90
2019-02-08T08:12:22.494Z,7.80
2019-02-08T08:13:22.532Z,8.20
2019-02-08T08:14:22.568Z,8.10
2019-02-08T08:15:22.606Z,8.50
2019-02-08T08:16:22.647Z,8.30
2019-02-08T08:17:22.683Z,8.40
2019-02-08T08:18:22.721Z,8.40
2019-02-08T08:19:22.759Z,8.00
2019-02-08T08:20:22.795Z,8.40
2019-02-08T08:21:22.833Z,8.00
2019-02-08T08:22:22.870Z,8.00
2019-02-08T08:23:22.910Z,7.80
2019-02-08T08:24:22.948Z,7.90
2019-02-08T08:25:22.985Z,7.90
2019-02-08T08:26:23.023Z,8.40
2019-02-08T08:27:23.261Z,7.70
2019-02-08T08:28:23.098Z,7.90
2019-02-08T08:29:23.136Z,8.00
2019-02-08T08:30:23.173Z,8.60
2019-02-08T08:31:23.213Z,7.30
2019-02-08T08:32:23.257Z,7.30
2019-02-08T08:33:23.286Z,7.60
2019-02-08T08:34:23.326Z,7.90
2019-02-08T08:35:23.367Z,7.70
2019-02-08T08:36:23.405Z,7.80
2019-02-08T08:37:24.769Z,7.10
2019-02-08T08:38:23.476Z,7.60
2019-02-08T08:39:23.516Z,7.90
2019-02-08T08:40:23.560Z,7.90
2019-02-08T08:41:23.599Z,7.20
2019-02-08T08:42:23.629Z,7.50
2019-02-08T08:43:23.682Z,7.80
2019-02-08T08:44:23.706Z,7.50
2019-02-08T08:45:23.744Z,7.60
2019-02-08T08:46:23.781Z,8.10
2019-02-08T08:47:23.819Z,7.30
2019-02-08T08:48:23.858Z,7.30
2019-02-08T08:49:23.893Z,7.30
2019-02-08T08:50:23.941Z,7.70
2019-02-08T08:51:23.988Z,7.70
2019-02-08T08:52:24.006Z,7.50
2019-02-08T08:53:24.196Z,7.40
2019-02-08T08:54:24.083Z,8.00
2019-02-08T08:55:24.121Z,7.40
2019-02-08T08:56:24.165Z,7.20
2019-02-08T08:57:24.205Z,7.40
2019-02-08T08:58:24.234Z,7.80
2019-02-08T08:59:24.274Z,7.60
2019-02-08T09:00:24.311Z,7.70
2019-02-08T09:01:24.349Z,7.60
2019-02-08T09:02:24.389Z,8.00
2019-02-08T09:03:24.424Z,8.10
2019-02-08T09:04:24.463Z,7.70
2019-02-08T09:05:24.502Z,8.10
2019-02-08T09:06:24.539Z,8.10
2019-02-08T09:07:24.584Z,8.20
2019-02-08T09:08:24.614Z,7.50
2019-02-08T09:09:24.652Z,7.80
2019-02-08T09:10:24.691Z,7.80
2019-02-08T09:11:24.730Z,7.80
2019-02-08T09:12:24.767Z,7.90
2019-02-08T09:13:24.803Z,8.10
2019-02-08T09:14:24.856Z,8.00
2019-02-08T09:15:25.047Z,8.30
2019-02-08T09:16:24.933Z,7.30
2019-02-08T09:17:24.957Z,7.40
2019-02-08T09:18:24.995Z,7.80
2019-02-08T09:19:25.049Z,7.70
2019-02-08T09:20:25.073Z,7.60
2019-02-08T09:21:25.145Z,8.20
2019-02-08T09:22:25.144Z,7.90
2019-02-08T09:23:25.184Z,7.40
2019-02-08T09:24:25.228Z,7.40
2019-02-08T09:25:25.264Z,7.90
2019-02-08T09:26:25.303Z,7.40
2019-02-08T09:27:25.335Z,7.40
2019-02-08T09:28:25.378Z,7.50
2019-02-08T09:29:25.410Z,7.90
2019-02-08T09:30:25.450Z,7.40
2019-02-08T09:31:25.490Z,7.90
2019-02-08T09:32:25.525Z,7.80
2019-02-08T09:33:25.564Z,8.20
2019-02-08T09:34:25.600Z,7.50
2019-02-08T09:35:25.640Z,7.30
2019-02-08T09:36:25.678Z,7.30
2019-02-08T09:37:25.715Z,7.20
2019-02-08T09:38:25.754Z,6.70
2019-02-08T09:39:25.794Z,6.70
2019-02-08T09:40:25.837Z,7.10
2019-02-08T09:41:25.868Z,7.00
2019-02-08T09:42:25.907Z,6.80
2019-02-08T09:43:25.996Z,7.20
2019-02-08T09:44:25.984Z,6.90
2019-02-08T09:45:26.021Z,6.80
2019-02-08T09:46:26.062Z,6.90
2019-02-08T09:47:26.098Z,7.00
2019-02-08T09:48:26.137Z,7.10
2019-02-08T09:49:26.183Z,6.80
2019-02-08T09:50:26.214Z,7.10
2019-02-08T09:51:26.252Z,6.90
2019-02-08T09:52:26.289Z,6.50
2019-02-08T09:53:26.333Z,6.60
2019-02-08T09:54:26.366Z,6.80
2019-02-08T09:55:26.403Z,6.60
2019-02-08T09:56:26.450Z,6.30
2019-02-08T09:57:26.490Z,5.90
2019-02-08T09:58:26.520Z,6.50
2019-02-08T09:59:26.570Z,5.90
2019-02-08T10:00:26.597Z,6.10
2019-02-08T10:01:26.635Z,6.70
2019-02-08T10:02:26.672Z,6.80
2019-02-08T10:03:26.712Z,5.90
2019-02-08T10:04:26.751Z,6.30
2019-02-08T10:05:26.789Z,6.30
2019-02-08T10:06:26.829Z,6.00
2019-02-08T10:07:26.866Z,5.90
2019-02-08T10:08:26.918Z,5.50
2019-02-08T10:09:26.950Z,6.00
2019-02-08T10:10:26.981Z,5.60
2019-02-08T10:11:27.022Z,6.00
2019-02-08T10:12:27.059Z,5.60
2019-02-08T10:13:27.101Z,5.80
2019-02-08T10:14:27.137Z,5.50
2019-02-08T10:15:27.176Z,5.60
2019-02-08T10:16:27.218Z,5.30
2019-02-08T10:17:27.256Z,5.30
2019-02-08T10:18:27.297Z,5.10
2019-02-08T10:19:27.338Z,5.60
2019-02-08T10:20:27.377Z,5.60
2019-02-08T10:21:27.410Z,5.10
2019-02-08T10:22:27.448Z,5.50
2019-02-08T10:23:27.488Z,5.20
2019-02-08T10:24:27.526Z,5.10
2019-02-08T10:25:27.569Z,5.10
2019-02-08T10:26:27.605Z,4.90
2019-02-08T10:27:27.644Z,5.10
2019-02-08T10:28:27.682Z,4.90
2019-02-08T10:29:27.722Z,5.00
2019-02-08T10:30:27.764Z,4.90
2019-02-08T10:31:27.801Z,5.10
2019-02-08T10:32:27.840Z,4.80
2019-02-08T10:33:27.880Z,4.70
2019-02-08T10:34:27.919Z,4.80
2019-02-08T10:35:27.959Z,4.50
2019-02-08T10:36:28.003Z,4.50
2019-02-08T10:37:28.188Z,4.60
2019-02-08T10:38:28.082Z,4.20
2019-02-08T10:39:28.117Z,4.40
2019-02-08T10:40:28.157Z,4.60
2019-02-08T10:41:30.608Z,4.60
2019-02-08T10:42:28.233Z,4.30
2019-02-08T10:43:28.275Z,4.20
2019-02-08T10:44:28.313Z,4.20
2019-02-08T10:45:28.361Z,4.40
2019-02-08T10:46:28.395Z,4.10
2019-02-08T10:47:28.431Z,4.20
2019-02-08T10:48:28.476Z,4.30
2019-02-08T10:49:28.512Z,4.00
2019-02-08T10:50:28.552Z,4.10
2019-02-08T10:51:28.594Z,3.80
2019-02-08T10:52:28.629Z,4.00
2019-02-08T10:53:28.670Z,3.80
2019-02-08T10:54:28.710Z,3.70
2019-02-08T10:55:28.749Z,4.20
2019-02-08T10:56:28.794Z,4.30
2019-02-08T10:57:28.828Z,4.00
2019-02-08T10:58:28.870Z,4.20
2019-02-08T10:59:28.911Z,4.00
2019-02-08T11:00:28.948Z,4.20
2019-02-08T11:01:28.995Z,3.90
2019-02-08T11:02:29.028Z,4.10
2019-02-08T11:03:29.072Z,3.30
2019-02-08T11:04:29.110Z,3.90
2019-02-08T11:05:29.147Z,3.60
2019-02-08T11:06:29.191Z,3.80
2019-02-08T11:07:29.229Z,3.80
2019-02-08T11:08:29.267Z,3.80
2019-02-08T11:09:29.307Z,3.70
2019-02-08T11:10:29.365Z,3.60
2019-02-08T11:11:29.404Z,3.50
2019-02-08T11:12:29.428Z,3.70
2019-02-08T11:13:29.467Z,3.80
2019-02-08T11:14:29.507Z,3.20
2019-02-08T11:15:29.650Z,3.60
2019-02-08T11:16:29.597Z,3.70
2019-02-08T11:17:29.638Z,3.50
2019-02-08T11:18:29.682Z,3.60
2019-02-08T11:19:29.709Z,3.50
2019-02-08T11:20:29.749Z,3.40
2019-02-08T11:21:29.790Z,3.50
2019-02-08T11:22:29.830Z,3.50
2019-02-08T11:23:29.872Z,3.40
2019-02-08T11:24:29.908Z,3.30
2019-02-08T11:25:29.948Z,3.30
2019-02-08T11:26:29.992Z,3.50
2019-02-08T11:27:30.038Z,3.50
2019-02-08T11:28:30.069Z,3.40
2019-02-08T11:29:30.136Z,3.30
2019-02-08T11:30:30.159Z,3.50
2019-02-08T11:31:30.193Z,3.60
2019-02-08T11:32:42.931Z,3.60
2019-02-08T11:33:30.272Z,3.60
2019-02-08T11:34:30.311Z,3.50
2019-02-08T11:35:30.352Z,3.50
2019-02-08T11:36:30.393Z,3.70
2019-02-08T11:37:30.432Z,3.50
2019-02-08T11:38:30.474Z,4.00
2019-02-08T11:39:30.522Z,3.80
2019-02-08T11:40:30.556Z,3.30
2019-02-08T11:41:30.695Z,3.60
2019-02-08T11:42:30.635Z,3.80
2019-02-08T11:43:30.675Z,4.10
2019-02-08T11:44:30.717Z,3.40
2019-02-08T11:45:30.757Z,3.80
2019-02-08T11:46:30.796Z,3.20
2019-02-08T11:47:30.837Z,3.30
2019-02-08T11:48:30.880Z,3.10
2019-02-08T11:49:30.919Z,3.20
2019-02-08T11:50:30.969Z,3.20
2019-02-08T11:51:31.003Z,3.00
2019-02-08T11:52:31.045Z,2.90
2019-02-08T11:53:31.083Z,3.00
2019-02-08T11:54:31.119Z,3.20
2019-02-08T11:55:31.160Z,3.30
2019-02-08T11:56:31.218Z,3.10
2019-02-08T11:57:31.240Z,3.20
2019-02-08T11:58:31.281Z,3.40
2019-02-08T11:59:31.330Z,3.00
2019-02-08T12:00:31.363Z,2.90
2019-02-08T12:01:31.404Z,3.10
2019-02-08T12:02:31.445Z,2.90
2019-02-08T12:03:31.490Z,3.00
2019-02-08T12:04:31.525Z,3.10
2019-02-08T12:05:31.569Z,2.90
2019-02-08T12:06:31.614Z,3.40
2019-02-08T12:07:31.700Z,3.20
2019-02-08T12:08:31.686Z,3.50
2019-02-08T12:09:31.725Z,3.60
2019-02-08T12:10:31.766Z,3.40
2019-02-08T12:11:31.807Z,3.20
2019-02-08T12:12:31.844Z,3.40
2019-02-08T12:13:31.896Z,2.90
2019-02-08T12:14:31.932Z,3.20
2019-02-08T12:15:31.975Z,3.10
2019-02-08T12:16:32.009Z,3.00
2019-02-08T12:17:32.100Z,3.00
2019-02-08T12:18:32.089Z,3.50
2019-02-08T12:19:32.130Z,3.30
2019-02-08T12:20:32.168Z,3.50
2019-02-08T12:21:32.219Z,3.20
2019-02-08T12:22:32.251Z,3.20
2019-02-08T12:23:32.292Z,3.20
2019-02-08T12:24:32.337Z,3.40
2019-02-08T12:25:32.373Z,3.40
2019-02-08T12:26:37.713Z,3.20
2019-02-08T12:27:32.449Z,3.40
2019-02-08T12:28:32.490Z,3.60
2019-02-08T12:29:32.537Z,3.70
2019-02-08T12:30:32.579Z,2.90
2019-02-08T12:31:32.620Z,3.30
2019-02-08T12:33:32.700Z,3.30
2019-02-08T12:34:32.730Z,3.10
2019-02-08T12:35:32.782Z,3.10
2019-02-08T12:36:32.810Z,3.20
2019-02-08T12:37:32.851Z,3.00
2019-02-08T12:38:32.892Z,3.30
2019-02-08T12:39:32.933Z,3.00
2019-02-08T12:40:32.972Z,2.80
2019-02-08T12:41:33.011Z,2.90
2019-02-08T12:42:33.068Z,3.10
2019-02-08T12:43:33.148Z,2.60
2019-02-08T12:44:33.140Z,2.80
2019-02-08T12:45:33.174Z,2.40
2019-02-08T12:46:33.217Z,2.70
2019-02-08T12:47:33.255Z,2.60
2019-02-08T12:48:33.294Z,2.70
2019-02-08T12:49:33.334Z,2.80
2019-02-08T12:50:33.376Z,3.00
2019-02-08T12:51:34.440Z,2.80
2019-02-08T12:52:33.455Z,2.70
2019-02-08T12:53:33.496Z,2.80
2019-02-08T12:54:33.537Z,2.60
2019-02-08T12:55:33.580Z,2.80
2019-02-08T12:56:33.619Z,2.50
2019-02-08T12:57:33.658Z,2.90
2019-02-08T12:58:33.698Z,3.10
2019-02-08T12:59:33.747Z,2.60
2019-02-08T13:00:33.782Z,2.80
2019-02-08T13:01:37.720Z,2.60
2019-02-08T13:02:33.860Z,3.00
2019-02-08T13:03:33.901Z,2.50
2019-02-08T13:04:33.941Z,2.90
2019-02-08T13:05:33.985Z,2.70
2019-02-08T13:06:34.024Z,2.70
2019-02-08T13:07:34.065Z,2.30
2019-02-08T13:08:34.112Z,2.70
2019-02-08T13:09:34.144Z,3.00
2019-02-08T13:10:34.183Z,3.30
2019-02-08T13:11:34.227Z,3.00
2019-02-08T13:12:34.265Z,3.10
2019-02-08T13:13:34.313Z,2.70
2019-02-08T13:14:34.349Z,2.50
2019-02-08T13:15:34.390Z,2.70
2019-02-08T13:16:34.432Z,3.10